Airfield :
LOGIN :

Register | Disclaimer

   EN    FR    IT 

 










Legend :    VFR   Marginal VFR   IFR   Intensive IFR   Very Intensive IFR
Visi :
Ceiling :
>= 8 km
>= 3000ft
5 to 8 km
1000 to 3000 ft
1500m to 5 km
500 to 1000 ft
800 to 1500m
200 to 500 ft
< 800m
< 200 ft
Symbols :   Thunderstorms  Fog  Heavy snow  Heavy precipitations  Wind > 20 kt
SIGMETs :     Misc.  Thunderstorms  Icing  Turbulence  Mountain Waves  Volcanic Ashes







- Airport Elevation : 978 ft
- IATA code : LNZ


LOWL - Linz

CURRENT METAR :
  • 231650Z 28006KT 9999 FEW060 FEW060CB SCT100 BKN250 23/10 Q1013 NOSIG

EXPIRED METARs :
  • 231620Z 30008KT 9999 FEW060 FEW060CB SCT120 BKN220 24/09 Q1013 NOSIG
  • 231550Z 29011KT 9999 FEW060 FEW060CB SCT120 BKN300 24/09 Q1013 NOSIG
  • 231520Z 31010KT 9999 FEW060 FEW060CB SCT150 BKN300 24/08 Q1014 NOSIG
  • 231450Z 31012KT 9999 FEW060 FEW060CB SCT150 BKN300 25/07 Q1014 NOSIG
  • 231420Z 30011KT 9999 FEW060 SCT300 26/07 Q1014 NOSIG

TAF TAF LOWL
Valid from the 23 at 12:00 until the 24 at 12:00 UTC


231115Z 2312/2412 27010KT 9999 FEW070 SCT120 BKN270 TX25/2314Z TN13/2404Z
TEMPO 2312/2317 FEW060CB
PROB40
TEMPO 2317/2324 25015G25KT 6000 TSRA SCT040CB BKN060
BECMG 2320/2322 27005KT -RA SCT025 BKN040
TEMPO 2322/2405 6000 RA SCT012 BKN020
BECMG 2408/2410 26008KT NSW FEW030 BKN045
No reported NOTAMs for that airfield.



MET'MAP, your aeronautical weather chart ! - Copyright ORBIFLY December 2007 - Disclaimer

ORBIFLY MET'MAP TEAM :

Programming & Development : Alexandra Zaïnal
Concept & Development : Baudouin d'Aumeries
Co-Development & Prog : Marc-Olivier Méhu
Technical & hardware support : Manuel Goepfert

Contact : metmap@orbifly.com




SOURCES & CREDITS :

   NOAA